sensor_id;sensor_type;location;lat;lon;timestamp;P1;durP1;ratioP1;P2;durP2;ratioP2
10142;SDS011;5112;54.088;13.446;2023-08-06T00:07:01;5.20;;;3.70;;
10142;SDS011;5112;54.088;13.446;2023-08-06T00:17:05;3.10;;;2.80;;
10142;SDS011;5112;54.088;13.446;2023-08-06T00:27:06;3.70;;;3.17;;
10142;SDS011;5112;54.088;13.446;2023-08-06T00:37:10;7.20;;;3.53;;
10142;SDS011;5112;54.088;13.446;2023-08-06T00:47:11;3.57;;;3.27;;
10142;SDS011;5112;54.088;13.446;2023-08-06T00:57:14;4.93;;;3.50;;
10142;SDS011;5112;54.088;13.446;2023-08-06T01:07:19;5.93;;;4.37;;
10142;SDS011;5112;54.088;13.446;2023-08-06T01:17:32;4.63;;;3.50;;
10142;SDS011;5112;54.088;13.446;2023-08-06T01:27:38;4.40;;;3.20;;
10142;SDS011;5112;54.088;13.446;2023-08-06T01:37:46;3.70;;;3.07;;
10142;SDS011;5112;54.088;13.446;2023-08-06T01:47:50;3.67;;;3.37;;
10142;SDS011;5112;54.088;13.446;2023-08-06T01:57:51;4.40;;;4.10;;
10142;SDS011;5112;54.088;13.446;2023-08-06T02:07:54;4.23;;;3.70;;
10142;SDS011;5112;54.088;13.446;2023-08-06T02:17:56;3.90;;;3.50;;
10142;SDS011;5112;54.088;13.446;2023-08-06T02:28:00;4.40;;;3.33;;
10142;SDS011;5112;54.088;13.446;2023-08-06T02:38:02;3.73;;;3.43;;
10142;SDS011;5112;54.088;13.446;2023-08-06T02:48:05;5.40;;;4.40;;
10142;SDS011;5112;54.088;13.446;2023-08-06T02:58:07;4.93;;;4.53;;
10142;SDS011;5112;54.088;13.446;2023-08-06T03:08:10;5.47;;;4.67;;
10142;SDS011;5112;54.088;13.446;2023-08-06T03:18:11;5.00;;;4.50;;
10142;SDS011;5112;54.088;13.446;2023-08-06T03:28:14;7.00;;;5.10;;
10142;SDS011;5112;54.088;13.446;2023-08-06T03:38:16;4.53;;;4.13;;
10142;SDS011;5112;54.088;13.446;2023-08-06T03:48:19;3.97;;;3.67;;
10142;SDS011;5112;54.088;13.446;2023-08-06T03:58:21;4.30;;;3.50;;
10142;SDS011;5112;54.088;13.446;2023-08-06T04:08:24;6.33;;;4.17;;
10142;SDS011;5112;54.088;13.446;2023-08-06T04:18:26;5.00;;;3.50;;
10142;SDS011;5112;54.088;13.446;2023-08-06T04:28:29;4.07;;;3.63;;
10142;SDS011;5112;54.088;13.446;2023-08-06T04:38:31;4.67;;;3.87;;
10142;SDS011;5112;54.088;13.446;2023-08-06T04:48:34;4.27;;;3.83;;
10142;SDS011;5112;54.088;13.446;2023-08-06T04:58:36;4.73;;;4.30;;
10142;SDS011;5112;54.088;13.446;2023-08-06T05:08:39;5.23;;;4.73;;
10142;SDS011;5112;54.088;13.446;2023-08-06T05:18:41;6.47;;;4.77;;
10142;SDS011;5112;54.088;13.446;2023-08-06T05:28:44;5.17;;;4.73;;
10142;SDS011;5112;54.088;13.446;2023-08-06T05:38:45;3.90;;;3.60;;
10142;SDS011;5112;54.088;13.446;2023-08-06T05:48:48;4.20;;;3.90;;
10142;SDS011;5112;54.088;13.446;2023-08-06T05:58:51;6.67;;;4.27;;
10142;SDS011;5112;54.088;13.446;2023-08-06T06:08:54;4.17;;;3.83;;
10142;SDS011;5112;54.088;13.446;2023-08-06T06:18:56;5.00;;;3.70;;
10142;SDS011;5112;54.088;13.446;2023-08-06T06:28:59;5.70;;;4.20;;
10142;SDS011;5112;54.088;13.446;2023-08-06T06:39:01;6.60;;;4.70;;
10142;SDS011;5112;54.088;13.446;2023-08-06T06:49:04;5.43;;;4.20;;
10142;SDS011;5112;54.088;13.446;2023-08-06T06:59:05;5.07;;;4.40;;
10142;SDS011;5112;54.088;13.446;2023-08-06T07:09:08;6.03;;;4.07;;
10142;SDS011;5112;54.088;13.446;2023-08-06T07:19:10;6.90;;;4.23;;
10142;SDS011;5112;54.088;13.446;2023-08-06T07:29:13;5.27;;;4.20;;
10142;SDS011;5112;54.088;13.446;2023-08-06T07:39:19;5.23;;;4.40;;
10142;SDS011;5112;54.088;13.446;2023-08-06T07:49:24;5.23;;;4.73;;
10142;SDS011;5112;54.088;13.446;2023-08-06T07:59:25;7.53;;;5.50;;
10142;SDS011;5112;54.088;13.446;2023-08-06T08:09:28;5.77;;;4.77;;
10142;SDS011;5112;54.088;13.446;2023-08-06T08:19:30;8.17;;;5.60;;
10142;SDS011;5112;54.088;13.446;2023-08-06T08:29:33;5.17;;;4.63;;
10142;SDS011;5112;54.088;13.446;2023-08-06T08:39:35;7.10;;;5.00;;
10142;SDS011;5112;54.088;13.446;2023-08-06T08:49:38;5.93;;;4.83;;
10142;SDS011;5112;54.088;13.446;2023-08-06T08:59:41;7.40;;;6.17;;
10142;SDS011;5112;54.088;13.446;2023-08-06T09:09:44;7.80;;;6.00;;
10142;SDS011;5112;54.088;13.446;2023-08-06T09:19:48;6.63;;;5.47;;
10142;SDS011;5112;54.088;13.446;2023-08-06T09:29:51;12.87;;;6.07;;
10142;SDS011;5112;54.088;13.446;2023-08-06T09:39:52;6.77;;;5.53;;
10142;SDS011;5112;54.088;13.446;2023-08-06T09:49:56;6.53;;;5.63;;
10142;SDS011;5112;54.088;13.446;2023-08-06T09:59:58;6.27;;;5.57;;
10142;SDS011;5112;54.088;13.446;2023-08-06T10:10:02;7.17;;;6.17;;
10142;SDS011;5112;54.088;13.446;2023-08-06T10:20:04;6.00;;;5.40;;
10142;SDS011;5112;54.088;13.446;2023-08-06T10:30:25;6.17;;;5.60;;
10142;SDS011;5112;54.088;13.446;2023-08-06T10:40:28;5.67;;;5.10;;
10142;SDS011;5112;54.088;13.446;2023-08-06T10:50:32;8.90;;;5.53;;
10142;SDS011;5112;54.088;13.446;2023-08-06T11:00:34;5.83;;;5.27;;
10142;SDS011;5112;54.088;13.446;2023-08-06T11:10:37;5.73;;;5.23;;
10142;SDS011;5112;54.088;13.446;2023-08-06T11:20:39;6.73;;;5.10;;
10142;SDS011;5112;54.088;13.446;2023-08-06T11:30:42;7.03;;;5.87;;
10142;SDS011;5112;54.088;13.446;2023-08-06T11:40:44;6.77;;;5.27;;
10142;SDS011;5112;54.088;13.446;2023-08-06T11:50:47;8.77;;;5.40;;
10142;SDS011;5112;54.088;13.446;2023-08-06T12:00:49;6.07;;;5.43;;
10142;SDS011;5112;54.088;13.446;2023-08-06T12:10:52;6.93;;;5.50;;
10142;SDS011;5112;54.088;13.446;2023-08-06T12:20:54;8.10;;;6.20;;
10142;SDS011;5112;54.088;13.446;2023-08-06T12:30:57;6.57;;;5.90;;
10142;SDS011;5112;54.088;13.446;2023-08-06T12:40:58;7.43;;;6.17;;
10142;SDS011;5112;54.088;13.446;2023-08-06T12:51:01;7.87;;;5.70;;
10142;SDS011;5112;54.088;13.446;2023-08-06T13:01:03;7.87;;;5.47;;
10142;SDS011;5112;54.088;13.446;2023-08-06T13:11:06;6.37;;;5.77;;
10142;SDS011;5112;54.088;13.446;2023-08-06T13:21:08;7.07;;;4.80;;
10142;SDS011;5112;54.088;13.446;2023-08-06T13:31:11;5.40;;;4.90;;
10142;SDS011;5112;54.088;13.446;2023-08-06T13:41:13;5.13;;;4.57;;
10142;SDS011;5112;54.088;13.446;2023-08-06T13:51:16;4.30;;;3.87;;
10142;SDS011;5112;54.088;13.446;2023-08-06T14:01:17;4.87;;;3.57;;
10142;SDS011;5112;54.088;13.446;2023-08-06T14:11:21;6.63;;;4.90;;
10142;SDS011;5112;54.088;13.446;2023-08-06T14:21:22;5.23;;;4.73;;
10142;SDS011;5112;54.088;13.446;2023-08-06T14:31:25;3.17;;;2.93;;
10142;SDS011;5112;54.088;13.446;2023-08-06T14:41:27;4.20;;;2.80;;
10142;SDS011;5112;54.088;13.446;2023-08-06T14:51:30;4.43;;;2.90;;
10142;SDS011;5112;54.088;13.446;2023-08-06T15:01:32;6.30;;;3.33;;
10142;SDS011;5112;54.088;13.446;2023-08-06T15:11:35;5.83;;;3.53;;
10142;SDS011;5112;54.088;13.446;2023-08-06T15:21:36;4.93;;;3.30;;
10142;SDS011;5112;54.088;13.446;2023-08-06T15:31:39;7.90;;;3.50;;
10142;SDS011;5112;54.088;13.446;2023-08-06T15:41:41;8.77;;;3.53;;
10142;SDS011;5112;54.088;13.446;2023-08-06T15:51:44;6.77;;;3.70;;
10142;SDS011;5112;54.088;13.446;2023-08-06T16:01:46;5.60;;;3.67;;
10142;SDS011;5112;54.088;13.446;2023-08-06T16:11:49;5.87;;;3.47;;
10142;SDS011;5112;54.088;13.446;2023-08-06T16:21:52;4.37;;;3.97;;
10142;SDS011;5112;54.088;13.446;2023-08-06T16:31:55;7.83;;;4.00;;
10142;SDS011;5112;54.088;13.446;2023-08-06T16:41:57;4.33;;;3.70;;
10142;SDS011;5112;54.088;13.446;2023-08-06T16:52:00;6.20;;;3.97;;
10142;SDS011;5112;54.088;13.446;2023-08-06T17:02:02;7.30;;;3.83;;
10142;SDS011;5112;54.088;13.446;2023-08-06T17:12:05;7.20;;;4.60;;
10142;SDS011;5112;54.088;13.446;2023-08-06T17:22:07;4.43;;;3.67;;
10142;SDS011;5112;54.088;13.446;2023-08-06T17:32:10;5.03;;;3.57;;
10142;SDS011;5112;54.088;13.446;2023-08-06T17:42:13;4.50;;;3.40;;
10142;SDS011;5112;54.088;13.446;2023-08-06T17:52:16;6.47;;;3.30;;
10142;SDS011;5112;54.088;13.446;2023-08-06T18:02:17;4.23;;;3.77;;
10142;SDS011;5112;54.088;13.446;2023-08-06T18:12:20;4.47;;;3.90;;
10142;SDS011;5112;54.088;13.446;2023-08-06T18:22:22;7.00;;;3.53;;
10142;SDS011;5112;54.088;13.446;2023-08-06T18:32:25;6.07;;;2.50;;
10142;SDS011;5112;54.088;13.446;2023-08-06T18:42:27;3.17;;;2.60;;
10142;SDS011;5112;54.088;13.446;2023-08-06T18:52:30;4.23;;;2.80;;
10142;SDS011;5112;54.088;13.446;2023-08-06T19:02:32;4.47;;;2.57;;
10142;SDS011;5112;54.088;13.446;2023-08-06T19:12:35;7.33;;;2.53;;
10142;SDS011;5112;54.088;13.446;2023-08-06T19:22:36;4.87;;;2.37;;
10142;SDS011;5112;54.088;13.446;2023-08-06T19:32:39;6.17;;;2.87;;
10142;SDS011;5112;54.088;13.446;2023-08-06T19:42:41;8.03;;;2.50;;
10142;SDS011;5112;54.088;13.446;2023-08-06T19:52:44;4.33;;;2.47;;
10142;SDS011;5112;54.088;13.446;2023-08-06T20:02:46;5.20;;;2.53;;
10142;SDS011;5112;54.088;13.446;2023-08-06T20:12:49;2.40;;;2.20;;
10142;SDS011;5112;54.088;13.446;2023-08-06T20:22:50;2.97;;;2.23;;
10142;SDS011;5112;54.088;13.446;2023-08-06T20:32:53;4.77;;;2.33;;
10142;SDS011;5112;54.088;13.446;2023-08-06T20:42:55;2.63;;;2.43;;
10142;SDS011;5112;54.088;13.446;2023-08-06T20:52:58;4.80;;;2.57;;
10142;SDS011;5112;54.088;13.446;2023-08-06T21:03:00;2.60;;;2.27;;
10142;SDS011;5112;54.088;13.446;2023-08-06T21:13:03;3.53;;;2.57;;
10142;SDS011;5112;54.088;13.446;2023-08-06T21:23:04;2.90;;;2.23;;
10142;SDS011;5112;54.088;13.446;2023-08-06T21:33:07;2.43;;;1.93;;
10142;SDS011;5112;54.088;13.446;2023-08-06T21:43:09;3.10;;;2.57;;
10142;SDS011;5112;54.088;13.446;2023-08-06T21:53:12;4.03;;;2.73;;
10142;SDS011;5112;54.088;13.446;2023-08-06T22:03:13;5.90;;;2.63;;
10142;SDS011;5112;54.088;13.446;2023-08-06T22:13:16;4.87;;;2.50;;
10142;SDS011;5112;54.088;13.446;2023-08-06T22:23:18;3.40;;;2.80;;
10142;SDS011;5112;54.088;13.446;2023-08-06T22:33:21;5.47;;;2.80;;
10142;SDS011;5112;54.088;13.446;2023-08-06T22:43:25;4.27;;;2.60;;
10142;SDS011;5112;54.088;13.446;2023-08-06T22:53:28;3.93;;;2.70;;
10142;SDS011;5112;54.088;13.446;2023-08-06T23:03:29;4.60;;;2.80;;
10142;SDS011;5112;54.088;13.446;2023-08-06T23:13:32;5.10;;;2.63;;
10142;SDS011;5112;54.088;13.446;2023-08-06T23:23:34;4.23;;;2.90;;
10142;SDS011;5112;54.088;13.446;2023-08-06T23:33:37;3.37;;;2.43;;
10142;SDS011;5112;54.088;13.446;2023-08-06T23:43:39;4.47;;;2.97;;
10142;SDS011;5112;54.088;13.446;2023-08-06T23:53:42;3.53;;;3.03;;
